CFTIW CYXU-KSHD
Flight info
| Callsign | CFTIW |
|---|---|
| Flight time | N/A |
| Altitude | 9000 |
| Route | DCT |
| Aircraft | BE58/L-SDE3/1200 |
Departure
| Time | 2026-04-25 10:51 |
|---|---|
| Airport | London International Airport (CYXU) |
Arrival
| Time | N/A |
|---|---|
| Airport | Shenandoah Valley Regional Airport (KSHD) |
| Time | Latitude | Longitude | Altitude | Speed | Heading |
|---|---|---|---|---|---|
| 2026-04-25 10:38 | 43.02878 | -81.14779 | 903 ft | 0 kts | 319° |
| 2026-04-25 10:43 | 43.02870 | -81.14770 | 903 ft | 2 kts | 319° |
| 2026-04-25 10:44 | 43.02859 | -81.14757 | 903 ft | 2 kts | 319° |
| 2026-04-25 10:44 | 43.02858 | -81.14756 | 903 ft | 0 kts | 319° |
| 2026-04-25 10:45 | 43.02860 | -81.14758 | 903 ft | 2 kts | 330° |
| 2026-04-25 10:45 | 43.02892 | -81.14746 | 903 ft | 6 kts | 9° |
| 2026-04-25 10:45 | 43.02947 | -81.14783 | 903 ft | 13 kts | 318° |
| 2026-04-25 10:45 | 43.03018 | -81.14866 | 903 ft | 14 kts | 320° |
| 2026-04-25 10:46 | 43.03083 | -81.14946 | 903 ft | 15 kts | 319° |
| 2026-04-25 10:46 | 43.03168 | -81.15046 | 903 ft | 14 kts | 316° |
| 2026-04-25 10:46 | 43.03233 | -81.15129 | 903 ft | 13 kts | 319° |
| 2026-04-25 10:46 | 43.03324 | -81.15233 | 903 ft | 21 kts | 316° |
| 2026-04-25 10:47 | 43.03423 | -81.15354 | 903 ft | 16 kts | 317° |
| 2026-04-25 10:47 | 43.03505 | -81.15455 | 903 ft | 18 kts | 320° |
| 2026-04-25 10:47 | 43.03594 | -81.15562 | 903 ft | 15 kts | 316° |
| 2026-04-25 10:47 | 43.03675 | -81.15661 | 903 ft | 17 kts | 322° |
| 2026-04-25 10:48 | 43.03772 | -81.15772 | 902 ft | 17 kts | 319° |
| 2026-04-25 10:48 | 43.03847 | -81.15869 | 901 ft | 13 kts | 317° |
| 2026-04-25 10:48 | 43.03908 | -81.15941 | 902 ft | 12 kts | 322° |
| 2026-04-25 10:48 | 43.03982 | -81.16009 | 903 ft | 14 kts | 344° |
| 2026-04-25 10:49 | 43.04053 | -81.16010 | 903 ft | 6 kts | 4° |
| 2026-04-25 10:49 | 43.04063 | -81.16009 | 903 ft | 0 kts | 2° |
| 2026-04-25 10:49 | 43.04065 | -81.16009 | 903 ft | 1 kts | 1° |
| 2026-04-25 10:50 | 43.04117 | -81.15977 | 904 ft | 11 kts | 47° |
| 2026-04-25 10:50 | 43.04133 | -81.15904 | 904 ft | 8 kts | 107° |
| 2026-04-25 10:50 | 43.04074 | -81.15818 | 903 ft | 19 kts | 135° |
| 2026-04-25 10:50 | 43.03829 | -81.15513 | 902 ft | 84 kts | 145° |
| 2026-04-25 10:51 | 43.03239 | -81.14888 | 1166 ft | 113 kts | 137° |
| 2026-04-25 10:51 | 43.02685 | -81.14199 | 1797 ft | 103 kts | 133° |
| 2026-04-25 10:51 | 43.02111 | -81.13622 | 2243 ft | 112 kts | 150° |
| 2026-04-25 10:51 | 43.01327 | -81.13162 | 2634 ft | 130 kts | 163° |
| 2026-04-25 10:52 | 43.00388 | -81.12752 | 2831 ft | 154 kts | 166° |
| 2026-04-25 10:52 | 42.99393 | -81.12317 | 3367 ft | 144 kts | 168° |
| 2026-04-25 10:52 | 42.98485 | -81.11940 | 3944 ft | 133 kts | 171° |
| 2026-04-25 10:52 | 42.97619 | -81.11626 | 4533 ft | 124 kts | 171° |
| 2026-04-25 10:53 | 42.96824 | -81.11289 | 5102 ft | 114 kts | 170° |
| 2026-04-25 10:53 | 42.96107 | -81.10960 | 5597 ft | 110 kts | 169° |
| 2026-04-25 10:53 | 42.95353 | -81.10633 | 5964 ft | 115 kts | 171° |
| 2026-04-25 10:53 | 42.94585 | -81.10301 | 6370 ft | 116 kts | 171° |
| 2026-04-25 10:54 | 42.93821 | -81.09966 | 6763 ft | 115 kts | 170° |
| 2026-04-25 10:54 | 42.93301 | -81.09744 | 7025 ft | 115 kts | 171° |
| 2026-04-25 10:54 | 42.92288 | -81.09313 | 7554 ft | 115 kts | 171° |
| 2026-04-25 10:54 | 42.91525 | -81.08989 | 7952 ft | 115 kts | 171° |
| 2026-04-25 10:55 | 42.90764 | -81.08658 | 8351 ft | 115 kts | 168° |
| 2026-04-25 10:55 | 42.90010 | -81.08299 | 8744 ft | 114 kts | 167° |
| 2026-04-25 10:55 | 42.89241 | -81.07924 | 9005 ft | 129 kts | 167° |
| 2026-04-25 10:55 | 42.88299 | -81.07486 | 9018 ft | 156 kts | 166° |
| 2026-04-25 10:56 | 42.87219 | -81.06948 | 9024 ft | 172 kts | 164° |
| 2026-04-25 10:56 | 42.86068 | -81.06354 | 9016 ft | 180 kts | 163° |
| 2026-04-25 10:56 | 42.84881 | -81.05743 | 9013 ft | 184 kts | 163° |
| 2026-04-25 10:56 | 42.83677 | -81.05128 | 9011 ft | 185 kts | 164° |
| 2026-04-25 10:57 | 42.82463 | -81.04511 | 9009 ft | 186 kts | 164° |
| 2026-04-25 10:57 | 42.81704 | -81.04126 | 9008 ft | 186 kts | 164° |
| 2026-04-25 10:57 | 42.81050 | -81.03794 | 9007 ft | 186 kts | 164° |
| 2026-04-25 10:57 | 42.79834 | -81.03177 | 9011 ft | 186 kts | 164° |
| 2026-04-25 10:58 | 42.78636 | -81.02571 | 9009 ft | 186 kts | 164° |
| 2026-04-25 10:58 | 42.77420 | -81.01955 | 9011 ft | 187 kts | 164° |
| 2026-04-25 10:58 | 42.76201 | -81.01338 | 9008 ft | 187 kts | 164° |
| 2026-04-25 10:58 | 42.74984 | -81.00722 | 9014 ft | 187 kts | 164° |
| 2026-04-25 10:59 | 42.73767 | -81.00107 | 9013 ft | 187 kts | 164° |
| 2026-04-25 10:59 | 42.72551 | -80.99492 | 9013 ft | 187 kts | 164° |
| 2026-04-25 10:59 | 42.71332 | -80.98877 | 9007 ft | 187 kts | 164° |
| 2026-04-25 10:59 | 42.70116 | -80.98261 | 9008 ft | 187 kts | 164° |
| 2026-04-25 11:00 | 42.68898 | -80.97647 | 9007 ft | 187 kts | 164° |
| 2026-04-25 11:00 | 42.67677 | -80.97031 | 9006 ft | 187 kts | 164° |
| 2026-04-25 11:00 | 42.66459 | -80.96416 | 9004 ft | 187 kts | 164° |
| 2026-04-25 11:00 | 42.65238 | -80.95801 | 9000 ft | 187 kts | 164° |
| 2026-04-25 11:01 | 42.64018 | -80.95186 | 9003 ft | 187 kts | 164° |
| 2026-04-25 11:01 | 42.62800 | -80.94572 | 9004 ft | 187 kts | 164° |
| 2026-04-25 11:01 | 42.61580 | -80.93958 | 8997 ft | 187 kts | 164° |
| 2026-04-25 11:01 | 42.60358 | -80.93343 | 8994 ft | 187 kts | 164° |
| 2026-04-25 11:02 | 42.59139 | -80.92729 | 8996 ft | 187 kts | 164° |
| 2026-04-25 11:02 | 42.57916 | -80.92114 | 8997 ft | 187 kts | 164° |
| 2026-04-25 11:02 | 42.56695 | -80.91500 | 8990 ft | 187 kts | 164° |
| 2026-04-25 11:02 | 42.55475 | -80.90887 | 8993 ft | 187 kts | 164° |
| 2026-04-25 11:03 | 42.54254 | -80.90274 | 8996 ft | 187 kts | 164° |
| 2026-04-25 11:03 | 42.53033 | -80.89660 | 8990 ft | 187 kts | 164° |
| 2026-04-25 11:03 | 42.51811 | -80.89048 | 8996 ft | 187 kts | 164° |
| 2026-04-25 11:03 | 42.50587 | -80.88433 | 8995 ft | 187 kts | 164° |
| 2026-04-25 11:04 | 42.49365 | -80.87820 | 9003 ft | 187 kts | 164° |
| 2026-04-25 11:04 | 42.48140 | -80.87206 | 8994 ft | 187 kts | 164° |
| 2026-04-25 11:04 | 42.46935 | -80.86602 | 9002 ft | 187 kts | 164° |
| 2026-04-25 11:04 | 42.46108 | -80.86188 | 9006 ft | 188 kts | 164° |
| 2026-04-25 11:05 | 42.44487 | -80.85377 | 9001 ft | 188 kts | 164° |
| 2026-04-25 11:05 | 42.43262 | -80.84763 | 8999 ft | 188 kts | 164° |
| 2026-04-25 11:05 | 42.42037 | -80.84151 | 8997 ft | 188 kts | 164° |
| 2026-04-25 11:05 | 42.40811 | -80.83537 | 9000 ft | 188 kts | 164° |
| 2026-04-25 11:06 | 42.39587 | -80.82926 | 9004 ft | 188 kts | 164° |
| 2026-04-25 11:06 | 42.38363 | -80.82314 | 9002 ft | 188 kts | 164° |
| 2026-04-25 11:06 | 42.37138 | -80.81702 | 9004 ft | 188 kts | 164° |
| 2026-04-25 11:06 | 42.35914 | -80.81092 | 9004 ft | 188 kts | 164° |
| 2026-04-25 11:07 | 42.34687 | -80.80479 | 9001 ft | 188 kts | 164° |
| 2026-04-25 11:07 | 42.33461 | -80.79868 | 9006 ft | 187 kts | 164° |
| 2026-04-25 11:07 | 42.32238 | -80.79257 | 9006 ft | 188 kts | 164° |
| 2026-04-25 11:07 | 42.31013 | -80.78648 | 9006 ft | 187 kts | 164° |
| 2026-04-25 11:08 | 42.29791 | -80.78038 | 9000 ft | 188 kts | 164° |
| 2026-04-25 11:08 | 42.28565 | -80.77428 | 9003 ft | 188 kts | 164° |
| 2026-04-25 11:08 | 42.27338 | -80.76817 | 9004 ft | 188 kts | 164° |
| 2026-04-25 11:08 | 42.26114 | -80.76208 | 9002 ft | 188 kts | 164° |
| 2026-04-25 11:09 | 42.24886 | -80.75597 | 8999 ft | 188 kts | 164° |
| 2026-04-25 11:09 | 42.23660 | -80.74988 | 8998 ft | 188 kts | 164° |
| 2026-04-25 11:09 | 42.22432 | -80.74377 | 8999 ft | 188 kts | 164° |
| 2026-04-25 11:09 | 42.21203 | -80.73767 | 9000 ft | 188 kts | 164° |
| 2026-04-25 11:10 | 42.19975 | -80.73157 | 8997 ft | 188 kts | 164° |
| 2026-04-25 11:10 | 42.19163 | -80.72755 | 8997 ft | 188 kts | 164° |
| 2026-04-25 11:10 | 42.17518 | -80.71938 | 9001 ft | 188 kts | 164° |
| 2026-04-25 11:10 | 42.16291 | -80.71330 | 8998 ft | 188 kts | 164° |
| 2026-04-25 11:11 | 42.15063 | -80.70721 | 8994 ft | 188 kts | 164° |
| 2026-04-25 11:11 | 42.13851 | -80.70121 | 8995 ft | 188 kts | 165° |
| 2026-04-25 11:11 | 42.12621 | -80.69512 | 8997 ft | 188 kts | 164° |
| 2026-04-25 11:11 | 42.11393 | -80.68904 | 8995 ft | 188 kts | 164° |
| 2026-04-25 11:12 | 42.10168 | -80.68297 | 8990 ft | 188 kts | 164° |
| 2026-04-25 11:12 | 42.08940 | -80.67689 | 8987 ft | 188 kts | 165° |
| 2026-04-25 11:12 | 42.07709 | -80.67081 | 8985 ft | 188 kts | 165° |
| 2026-04-25 11:12 | 42.06482 | -80.66474 | 8985 ft | 188 kts | 164° |
| 2026-04-25 11:13 | 42.05254 | -80.65868 | 8983 ft | 188 kts | 164° |
| 2026-04-25 11:13 | 42.04028 | -80.65262 | 8980 ft | 188 kts | 164° |
| 2026-04-25 11:13 | 42.02799 | -80.64655 | 8980 ft | 188 kts | 164° |
| 2026-04-25 11:13 | 42.01574 | -80.64051 | 8976 ft | 188 kts | 164° |
| 2026-04-25 11:14 | 42.00346 | -80.63445 | 8976 ft | 188 kts | 164° |
| 2026-04-25 11:14 | 41.99116 | -80.62839 | 8972 ft | 188 kts | 164° |
| 2026-04-25 11:14 | 41.97890 | -80.62235 | 8972 ft | 188 kts | 165° |
| 2026-04-25 11:14 | 41.96665 | -80.61631 | 8972 ft | 188 kts | 165° |
| 2026-04-25 11:15 | 41.95436 | -80.61026 | 8968 ft | 188 kts | 164° |
| 2026-04-25 11:15 | 41.94224 | -80.60429 | 8970 ft | 188 kts | 165° |
| 2026-04-25 11:15 | 41.92996 | -80.59825 | 8970 ft | 188 kts | 165° |
| 2026-04-25 11:15 | 41.91771 | -80.59222 | 8969 ft | 188 kts | 165° |
| 2026-04-25 11:16 | 41.89316 | -80.58016 | 8975 ft | 188 kts | 165° |
| 2026-04-25 11:16 | 41.88087 | -80.57413 | 8975 ft | 188 kts | 165° |
| 2026-04-25 11:16 | 41.86859 | -80.56809 | 8975 ft | 188 kts | 165° |
| 2026-04-25 11:17 | 41.85632 | -80.56206 | 8975 ft | 188 kts | 165° |
| 2026-04-25 11:17 | 41.84406 | -80.55606 | 8974 ft | 188 kts | 165° |
| 2026-04-25 11:17 | 41.83184 | -80.55007 | 8978 ft | 187 kts | 165° |
| 2026-04-25 11:17 | 41.81962 | -80.54408 | 8974 ft | 187 kts | 165° |
| 2026-04-25 11:18 | 41.80741 | -80.53809 | 8976 ft | 187 kts | 165° |
| 2026-04-25 11:18 | 41.79518 | -80.53210 | 8972 ft | 186 kts | 165° |
| 2026-04-25 11:18 | 41.78298 | -80.52613 | 8975 ft | 187 kts | 165° |
| 2026-04-25 11:18 | 41.77075 | -80.52014 | 8972 ft | 187 kts | 165° |
| 2026-04-25 11:19 | 41.75853 | -80.51417 | 8969 ft | 186 kts | 165° |
| 2026-04-25 11:19 | 41.74637 | -80.50821 | 8966 ft | 186 kts | 165° |
| 2026-04-25 11:19 | 41.73425 | -80.50228 | 8970 ft | 185 kts | 165° |
| 2026-04-25 11:19 | 41.72213 | -80.49638 | 8968 ft | 185 kts | 165° |
| 2026-04-25 11:20 | 41.71002 | -80.49045 | 8965 ft | 185 kts | 165° |
| 2026-04-25 11:20 | 41.69791 | -80.48454 | 8965 ft | 185 kts | 165° |
| 2026-04-25 11:20 | 41.68581 | -80.47863 | 8971 ft | 185 kts | 165° |
| 2026-04-25 11:20 | 41.67369 | -80.47272 | 8965 ft | 186 kts | 165° |
| 2026-04-25 11:21 | 41.66172 | -80.46688 | 8965 ft | 185 kts | 165° |
| 2026-04-25 11:21 | 41.64963 | -80.46100 | 8965 ft | 185 kts | 165° |
| 2026-04-25 11:21 | 41.63753 | -80.45510 | 8968 ft | 185 kts | 165° |
| 2026-04-25 11:21 | 41.62544 | -80.44920 | 8969 ft | 185 kts | 166° |
| 2026-04-25 11:22 | 41.61336 | -80.44332 | 8969 ft | 185 kts | 165° |
| 2026-04-25 11:22 | 41.60534 | -80.43943 | 8969 ft | 185 kts | 166° |
| 2026-04-25 11:22 | 41.58917 | -80.43155 | 8971 ft | 185 kts | 166° |